Time;durP1;ratioP1;P1;durP2;ratioP2;P2;SDS_P1;SDS_P2;PMS_P1;PMS_P2;Temp;Humidity;BMP_temperature;BMP_pressure;BME280_temperature;BME280_humidity;BME280_pressure;Samples;Min_cycle;Max_cycle;Signal;HPM_P1;HPM_P2
2024/01/17 00:00:39;;;;;;;5.65;1.70;;;0.90;99.90;;;;;;5112558;28;20198;-85
2024/01/17 00:03:06;;;;;;;8.20;2.25;;;2.20;99.90;;;;;;5112519;28;20388;-85
2024/01/17 00:05:32;;;;;;;4.53;1.98;;;1.10;99.90;;;;;;5113642;28;20127;-86
2024/01/17 00:07:58;;;;;;;7.00;2.45;;;0.40;99.90;;;;;;5112792;28;20047;-85
2024/01/17 00:10:24;;;;;;;8.77;2.17;;;0.50;99.90;;;;;;5112025;28;20126;-86
2024/01/17 00:12:50;;;;;;;5.18;2.17;;;0.50;99.90;;;;;;5095974;28;20054;-85
2024/01/17 00:15:18;;;;;;;6.00;2.22;;;0.50;99.90;;;;;;5113779;28;20053;-86
2024/01/17 00:17:44;;;;;;;3.33;1.70;;;0.40;99.90;;;;;;5113029;28;20054;-85
2024/01/17 00:20:10;;;;;;;5.32;2.08;;;0.40;99.90;;;;;;5114006;28;20523;-85
2024/01/17 00:22:35;;;;;;;7.32;1.88;;;0.40;99.90;;;;;;5114440;28;20142;-85
2024/01/17 00:25:01;;;;;;;5.60;2.28;;;0.40;99.90;;;;;;5114427;28;20470;-84
2024/01/17 00:27:27;;;;;;;5.63;2.17;;;1.20;99.90;;;;;;5112811;28;20373;-85
2024/01/17 00:29:57;;;;;;;6.10;1.80;;;1.20;99.90;;;;;;5112311;28;20054;-86
2024/01/17 00:32:23;;;;;;;7.13;1.95;;;1.10;99.90;;;;;;5112110;28;20083;-85
2024/01/17 00:34:49;;;;;;;6.90;1.60;;;0.30;99.90;;;;;;5112299;28;20032;-87
2024/01/17 00:37:15;;;;;;;5.57;1.45;;;0.30;99.90;;;;;;5113584;28;20122;-84
2024/01/17 00:39:40;;;;;;;4.25;1.60;;;1.20;99.90;;;;;;5114369;28;20046;-85
2024/01/17 00:42:06;;;;;;;4.63;1.90;;;0.20;99.90;;;;;;5099523;28;20052;-86
2024/01/17 00:44:32;;;;;;;3.22;1.73;;;1.20;99.90;;;;;;5117584;28;20051;-84
2024/01/17 00:46:58;;;;;;;7.40;1.55;;;0.20;99.90;;;;;;5116941;28;20044;-85
2024/01/17 00:49:23;;;;;;;6.60;2.15;;;0.30;99.90;;;;;;5117463;28;20047;-88
2024/01/17 00:51:49;;;;;;;6.35;2.47;;;0.20;99.90;;;;;;5116335;28;20484;-86
2024/01/17 00:54:14;;;;;;;4.25;2.08;;;0.20;99.90;;;;;;5116197;28;20404;-87
2024/01/17 00:56:40;;;;;;;6.13;2.10;;;0.20;99.90;;;;;;5116257;28;20437;-85
2024/01/17 00:59:06;;;;;;;6.20;2.60;;;0.90;99.90;;;;;;5116418;28;20126;-86
2024/01/17 01:01:31;;;;;;;4.47;2.15;;;0.20;99.90;;;;;;5116382;28;20047;-85
2024/01/17 01:03:57;;;;;;;6.03;2.83;;;0.20;99.90;;;;;;5116498;28;20043;-86
2024/01/17 01:06:23;;;;;;;3.72;2.08;;;0.10;99.90;;;;;;5118878;28;20055;-85
2024/01/17 01:08:49;;;;;;;8.82;3.15;;;0.20;99.90;;;;;;5120077;28;20055;-84
2024/01/17 01:11:15;;;;;;;10.65;3.67;;;1.00;99.90;;;;;;5121310;28;20396;-86
2024/01/17 01:13:40;;;;;;;7.90;3.58;;;0.80;99.90;;;;;;5116439;28;20040;-85
2024/01/17 01:16:09;;;;;;;6.85;2.97;;;0.90;99.90;;;;;;5115324;28;20491;-87
2024/01/17 01:18:35;;;;;;;8.80;2.58;;;1.20;99.90;;;;;;5099070;28;20136;-86
2024/01/17 01:21:01;;;;;;;6.30;3.33;;;0.10;99.90;;;;;;5098328;28;20089;-84
2024/01/17 01:23:27;;;;;;;11.45;3.47;;;0.90;99.90;;;;;;5115602;28;20488;-84
2024/01/17 01:25:53;;;;;;;11.52;3.10;;;0.20;99.90;;;;;;5116784;28;20503;-84
2024/01/17 01:28:19;;;;;;;8.45;2.97;;;0.20;99.90;;;;;;5098907;28;20050;-86
2024/01/17 01:30:45;;;;;;;5.90;2.80;;;0.10;99.90;;;;;;5115897;28;20040;-86
2024/01/17 01:33:11;;;;;;;8.38;3.03;;;-0.60;99.90;;;;;;5115586;28;20035;-86
2024/01/17 01:35:36;;;;;;;7.57;3.30;;;0.30;99.90;;;;;;5116213;28;20066;-86
2024/01/17 01:38:02;;;;;;;8.05;3.53;;;2.00;99.90;;;;;;5115284;28;20059;-87
2024/01/17 01:40:28;;;;;;;8.45;3.50;;;0.20;99.90;;;;;;5115336;28;20047;-86
2024/01/17 01:42:56;;;;;;;8.90;3.42;;;0.20;99.90;;;;;;5115091;28;20031;-86
2024/01/17 01:45:22;;;;;;;7.38;2.90;;;0.20;99.90;;;;;;5115591;28;20055;-87
2024/01/17 01:47:48;;;;;;;9.90;3.17;;;0.20;99.90;;;;;;5114864;28;20059;-87
2024/01/17 01:50:14;;;;;;;8.35;3.72;;;1.10;99.90;;;;;;5114786;28;20505;-86
2024/01/17 01:52:42;;;;;;;10.55;3.35;;;1.20;99.90;;;;;;5115253;28;20052;-85
2024/01/17 01:55:10;;;;;;;9.40;3.85;;;0.20;99.90;;;;;;5115416;28;20039;-86
2024/01/17 01:57:38;;;;;;;9.77;4.15;;;0.20;99.90;;;;;;5114638;28;20047;-85
2024/01/17 02:00:05;;;;;;;6.78;4.15;;;0.10;99.90;;;;;;5114794;28;20559;-87
2024/01/17 02:02:32;;;;;;;9.32;3.70;;;0.20;99.90;;;;;;5115184;28;20476;-87
2024/01/17 02:04:59;;;;;;;7.57;4.38;;;0.70;99.90;;;;;;5115001;28;20050;-88
2024/01/17 02:07:27;;;;;;;17.52;5.47;;;0.20;99.90;;;;;;5116373;28;20051;-87
2024/01/17 02:09:53;;;;;;;7.32;4.22;;;-0.30;99.90;;;;;;5114980;28;20047;-87
2024/01/17 02:12:19;;;;;;;9.43;4.22;;;0.20;99.90;;;;;;5115057;28;20035;-84
2024/01/17 02:14:45;;;;;;;8.85;4.43;;;0.20;99.90;;;;;;5114207;28;20040;-85
2024/01/17 02:17:10;;;;;;;9.45;4.85;;;1.00;99.90;;;;;;5115776;28;20048;-87
2024/01/17 02:19:40;;;;;;;9.55;5.40;;;1.00;99.90;;;;;;5115077;28;20373;-85
2024/01/17 02:22:05;;;;;;;17.02;6.47;;;0.10;99.90;;;;;;5114515;28;20126;-85
2024/01/17 02:24:31;;;;;;;13.48;5.10;;;0.10;99.90;;;;;;5115018;28;20067;-87
2024/01/17 02:26:59;;;;;;;10.30;5.28;;;0.10;99.90;;;;;;5115791;28;20039;-86
2024/01/17 02:29:26;;;;;;;12.10;5.35;;;0.90;99.90;;;;;;5115922;28;20035;-87
2024/01/17 02:31:52;;;;;;;9.27;5.30;;;0.10;99.90;;;;;;5114454;28;20039;-86
2024/01/17 02:34:18;;;;;;;9.07;4.97;;;0.10;99.90;;;;;;5114355;28;20043;-87
2024/01/17 02:36:43;;;;;;;12.15;5.93;;;0.40;99.90;;;;;;5114017;28;20043;-87
2024/01/17 02:39:10;;;;;;;12.88;5.68;;;0.10;99.90;;;;;;5115867;28;20134;-86
2024/01/17 02:41:36;;;;;;;8.30;5.82;;;0.10;99.90;;;;;;5114523;28;20039;-87
2024/01/17 02:44:02;;;;;;;10.60;5.43;;;0.10;99.90;;;;;;5115719;28;20096;-85
2024/01/17 02:46:29;;;;;;;10.05;5.78;;;0.10;99.90;;;;;;5097213;28;20039;-85
2024/01/17 02:48:54;;;;;;;10.82;5.65;;;0.70;99.90;;;;;;5114190;28;20047;-86
2024/01/17 02:51:20;;;;;;;11.75;4.82;;;0.00;99.90;;;;;;5114566;28;20119;-87
2024/01/17 02:53:46;;;;;;;12.73;6.00;;;0.00;99.90;;;;;;5115483;28;20455;-86
2024/01/17 02:56:14;;;;;;;9.43;4.90;;;1.20;99.90;;;;;;5117514;28;20044;-86
2024/01/17 02:58:40;;;;;;;10.18;5.68;;;0.00;99.90;;;;;;5101675;28;20156;-86
2024/01/17 03:01:06;;;;;;;9.10;5.30;;;0.00;99.90;;;;;;5118655;28;20048;-86
2024/01/17 03:03:32;;;;;;;13.77;6.00;;;0.30;99.90;;;;;;5113244;28;20058;-87
2024/01/17 03:05:57;;;;;;;10.05;5.60;;;-0.10;99.90;;;;;;5115062;28;20055;-86
2024/01/17 03:08:23;;;;;;;9.57;6.18;;;0.10;99.90;;;;;;5113909;28;20126;-86
2024/01/17 03:10:49;;;;;;;9.68;5.57;;;0.00;99.90;;;;;;5113797;28;20522;-86
2024/01/17 03:13:14;;;;;;;14.82;5.68;;;0.00;99.90;;;;;;5115010;28;20074;-85
2024/01/17 03:15:40;;;;;;;13.75;5.97;;;-0.10;99.90;;;;;;5114315;28;20499;-87
2024/01/17 03:18:08;;;;;;;13.45;5.40;;;0.00;99.90;;;;;;5114984;28;20118;-87
2024/01/17 03:20:34;;;;;;;9.60;5.93;;;0.00;99.90;;;;;;5113713;28;20392;-86
2024/01/17 03:23:00;;;;;;;13.82;6.15;;;0.10;99.90;;;;;;5114278;28;20039;-87
2024/01/17 03:25:26;;;;;;;12.13;6.45;;;-0.10;99.90;;;;;;5113131;28;20046;-85
2024/01/17 03:27:51;;;;;;;9.52;6.63;;;0.80;99.90;;;;;;5113200;28;20092;-87
2024/01/17 03:30:17;;;;;;;13.35;6.53;;;-0.20;99.90;;;;;;5113245;28;20416;-86
2024/01/17 03:32:43;;;;;;;8.88;5.95;;;-0.20;99.90;;;;;;5113218;28;20075;-85
2024/01/17 03:35:09;;;;;;;10.80;6.18;;;-0.20;99.90;;;;;;5113731;28;20067;-86
2024/01/17 03:37:36;;;;;;;14.80;6.05;;;-0.20;99.90;;;;;;5112914;28;20043;-86
2024/01/17 03:40:02;;;;;;;12.45;6.28;;;-0.20;99.90;;;;;;5114422;27;20036;-85
2024/01/17 03:42:27;;;;;;;9.93;6.38;;;-0.20;99.90;;;;;;5114410;28;20174;-86
2024/01/17 03:44:53;;;;;;;10.02;6.25;;;0.80;99.90;;;;;;5114410;28;20051;-86
2024/01/17 03:47:19;;;;;;;8.90;5.90;;;-0.20;99.90;;;;;;5112981;28;20047;-88
2024/01/17 03:49:44;;;;;;;17.02;6.22;;;-0.10;99.90;;;;;;5114595;28;20051;-86
2024/01/17 03:52:10;;;;;;;15.93;7.60;;;0.20;99.90;;;;;;5095299;28;20099;-84
2024/01/17 03:54:39;;;;;;;15.18;6.57;;;0.90;99.90;;;;;;5114275;28;20054;-87
2024/01/17 03:57:05;;;;;;;12.32;6.93;;;-0.20;99.90;;;;;;5112432;28;20400;-87
2024/01/17 03:59:30;;;;;;;13.07;7.15;;;-0.20;99.90;;;;;;5114042;28;20048;-87
2024/01/17 04:01:56;;;;;;;16.30;7.20;;;-0.20;99.90;;;;;;5112649;28;20046;-85
2024/01/17 04:04:22;;;;;;;12.20;7.82;;;0.30;99.90;;;;;;5114272;28;20051;-85
2024/01/17 04:06:47;;;;;;;16.67;7.05;;;0.00;99.90;;;;;;5111848;28;20051;-84
2024/01/17 04:09:13;;;;;;;11.57;6.82;;;0.10;99.90;;;;;;5112663;28;20051;-86
2024/01/17 04:11:39;;;;;;;10.68;6.72;;;0.20;99.90;;;;;;5114011;28;20039;-87
2024/01/17 04:14:05;;;;;;;15.43;7.22;;;-0.30;99.90;;;;;;5111905;28;20387;-87
2024/01/17 04:16:31;;;;;;;15.27;7.75;;;-0.30;99.90;;;;;;5112055;28;20048;-85
2024/01/17 04:18:56;;;;;;;14.13;7.18;;;0.30;99.90;;;;;;5113587;28;20062;-85
2024/01/17 04:21:22;;;;;;;13.93;7.35;;;-0.20;99.90;;;;;;5095109;28;20381;-87
2024/01/17 04:23:49;;;;;;;14.38;7.38;;;-0.40;99.90;;;;;;5112173;28;20496;-84
2024/01/17 04:26:23;;;;;;;14.23;6.85;;;0.10;99.90;;;;;;5113460;28;20044;-85
2024/01/17 04:28:52;;;;;;;15.57;7.78;;;-1.30;99.90;;;;;;5111984;28;20036;-84
2024/01/17 04:31:31;;;;;;;12.98;7.95;;;-0.40;99.90;;;;;;5112051;28;20130;-84
2024/01/17 04:33:58;;;;;;;17.85;8.27;;;-0.40;99.90;;;;;;5113363;28;20047;-86
2024/01/17 04:36:28;;;;;;;15.75;7.53;;;-0.50;99.90;;;;;;5112204;28;20036;-85
2024/01/17 04:38:54;;;;;;;13.75;8.23;;;0.40;99.90;;;;;;5113541;28;20445;-84
2024/01/17 04:41:20;;;;;;;17.50;7.78;;;0.40;99.90;;;;;;5113251;28;20054;-84
2024/01/17 04:43:46;;;;;;;15.90;7.57;;;-0.30;99.90;;;;;;5112161;28;20043;-84
2024/01/17 04:46:13;;;;;;;15.98;7.75;;;0.60;99.90;;;;;;5113211;28;20043;-84
2024/01/17 04:48:43;;;;;;;11.50;7.45;;;-0.40;99.90;;;;;;5113182;28;20053;-84
2024/01/17 04:51:10;;;;;;;13.20;7.75;;;1.00;99.90;;;;;;5111745;28;20123;-84
2024/01/17 04:53:43;;;;;;;15.10;8.23;;;-0.50;99.90;;;;;;5113110;28;20043;-85
2024/01/17 04:56:10;;;;;;;16.77;8.10;;;0.20;99.90;;;;;;5113190;28;20096;-84
2024/01/17 04:58:37;;;;;;;17.05;7.93;;;0.20;99.90;;;;;;5112897;28;20446;-84
2024/01/17 05:01:04;;;;;;;16.60;8.70;;;0.50;99.90;;;;;;5111891;28;20093;-85
2024/01/17 05:03:30;;;;;;;12.55;8.05;;;-0.40;99.90;;;;;;5112783;28;20054;-84
2024/01/17 05:05:55;;;;;;;15.27;8.10;;;0.40;99.90;;;;;;5111925;28;20048;-84
2024/01/17 05:08:21;;;;;;;14.18;7.78;;;-0.10;99.90;;;;;;5113246;28;20044;-84
2024/01/17 05:10:47;;;;;;;15.50;8.30;;;-0.50;99.90;;;;;;5113092;28;20071;-84
2024/01/17 05:13:13;;;;;;;18.80;8.38;;;0.20;99.90;;;;;;5112498;28;20068;-85
2024/01/17 05:15:39;;;;;;;14.10;9.30;;;-0.50;99.90;;;;;;5112608;28;20039;-84
2024/01/17 05:18:06;;;;;;;16.60;7.85;;;0.20;99.90;;;;;;5113296;28;20496;-84
2024/01/17 05:20:33;;;;;;;17.42;8.68;;;-0.60;99.90;;;;;;5112798;28;20047;-84
2024/01/17 05:22:59;;;;;;;22.23;8.52;;;-0.60;99.90;;;;;;5113287;28;20404;-84
2024/01/17 05:25:26;;;;;;;17.35;9.00;;;-0.30;99.90;;;;;;5112313;28;20043;-84
2024/01/17 05:27:52;;;;;;;19.20;8.85;;;-0.60;99.90;;;;;;5116435;28;20040;-84
2024/01/17 05:30:23;;;;;;;14.57;8.02;;;-0.50;99.90;;;;;;5116720;28;20503;-84
2024/01/17 05:32:49;;;;;;;18.05;8.75;;;-0.70;99.90;;;;;;5115533;28;20055;-84
2024/01/17 05:35:16;;;;;;;12.27;7.90;;;-0.20;99.90;;;;;;5115575;28;20052;-84
2024/01/17 05:37:42;;;;;;;15.35;8.27;;;-0.70;99.90;;;;;;5098412;28;20031;-84
2024/01/17 05:40:15;;;;;;;15.60;9.43;;;-0.70;99.90;;;;;;5116550;28;20043;-83
2024/01/17 05:42:42;;;;;;;13.93;8.82;;;-0.70;99.90;;;;;;5115206;28;20079;-84
2024/01/17 05:45:08;;;;;;;13.65;9.18;;;-0.60;99.90;;;;;;5116539;28;20056;-84
2024/01/17 05:47:35;;;;;;;15.63;8.60;;;-0.70;99.90;;;;;;5098131;28;20204;-84
2024/01/17 05:50:03;;;;;;;13.45;7.72;;;0.20;99.90;;;;;;5114504;28;20044;-84
2024/01/17 05:52:29;;;;;;;12.80;8.52;;;-0.70;99.90;;;;;;5115253;28;20043;-84
2024/01/17 05:54:54;;;;;;;15.88;7.78;;;-0.40;99.90;;;;;;5098161;28;20043;-84
2024/01/17 05:57:20;;;;;;;17.95;8.38;;;-0.70;99.90;;;;;;5115098;28;20050;-84
2024/01/17 05:59:46;;;;;;;18.05;8.93;;;0.30;99.90;;;;;;5114497;28;20044;-83
2024/01/17 06:02:11;;;;;;;16.73;8.07;;;-0.60;99.90;;;;;;5116456;28;20040;-84
2024/01/17 06:04:37;;;;;;;16.17;9.07;;;-0.80;99.90;;;;;;5116075;28;20047;-84
2024/01/17 06:07:03;;;;;;;14.30;9.57;;;-0.90;99.90;;;;;;5114851;28;20059;-84
2024/01/17 06:09:28;;;;;;;17.88;8.93;;;0.10;99.90;;;;;;5114979;28;20492;-85
2024/01/17 06:11:55;;;;;;;15.18;8.73;;;0.10;99.90;;;;;;5114456;28;20082;-86
2024/01/17 06:14:20;;;;;;;15.65;8.00;;;-0.90;99.90;;;;;;5114650;28;20077;-84
2024/01/17 06:16:47;;;;;;;16.08;8.60;;;-1.10;99.90;;;;;;5115151;28;20082;-85
2024/01/17 06:19:15;;;;;;;20.63;9.43;;;-1.50;99.90;;;;;;5114139;28;20044;-86
2024/01/17 06:21:40;;;;;;;16.73;8.85;;;-0.80;99.90;;;;;;5114483;28;20054;-86
2024/01/17 06:24:06;;;;;;;15.90;9.02;;;0.00;99.90;;;;;;5114792;28;20088;-85
2024/01/17 06:26:32;;;;;;;15.10;8.85;;;1.20;99.90;;;;;;5097405;28;20059;-86
2024/01/17 06:28:58;;;;;;;14.98;8.77;;;0.70;99.90;;;;;;5115603;28;20396;-85
2024/01/17 06:31:25;;;;;;;19.65;8.65;;;-0.90;99.90;;;;;;5113611;28;20050;-84
2024/01/17 06:33:51;;;;;;;18.63;9.65;;;-0.40;99.90;;;;;;5114062;28;20054;-85
2024/01/17 06:36:17;;;;;;;19.08;9.63;;;-0.60;99.90;;;;;;5115408;28;20488;-84
2024/01/17 06:38:43;;;;;;;18.15;9.32;;;-1.20;99.90;;;;;;5112858;28;20130;-85
2024/01/17 06:41:09;;;;;;;14.70;9.25;;;-0.80;99.90;;;;;;5114181;28;20077;-85
2024/01/17 06:43:34;;;;;;;16.27;8.48;;;-1.00;99.90;;;;;;5097002;28;20426;-86
2024/01/17 06:46:00;;;;;;;19.00;9.15;;;-0.90;99.90;;;;;;5115559;28;20043;-84
2024/01/17 06:48:26;;;;;;;14.90;9.20;;;-0.10;99.90;;;;;;5113598;28;20027;-85
2024/01/17 06:50:51;;;;;;;15.82;8.95;;;-1.20;99.90;;;;;;5115119;28;20057;-85
2024/01/17 06:53:17;;;;;;;15.85;8.52;;;-1.20;99.90;;;;;;5115074;28;20039;-85
2024/01/17 06:55:43;;;;;;;15.98;8.48;;;-1.20;99.90;;;;;;5096938;28;20047;-84
2024/01/17 06:58:10;;;;;;;13.13;8.30;;;-1.20;99.90;;;;;;5113464;28;20266;-85
2024/01/17 07:00:36;;;;;;;18.02;8.43;;;-0.80;99.90;;;;;;5113457;28;20108;-85
2024/01/17 07:03:01;;;;;;;15.30;8.75;;;-1.00;99.90;;;;;;5114065;28;20078;-85
2024/01/17 07:05:28;;;;;;;15.32;7.70;;;-1.20;99.90;;;;;;5113456;28;20047;-86
2024/01/17 07:07:54;;;;;;;15.02;7.88;;;-1.30;99.90;;;;;;5093514;28;20055;-86
2024/01/17 07:10:20;;;;;;;14.25;8.65;;;-1.20;99.90;;;;;;5093514;28;20036;-86
2024/01/17 07:12:45;;;;;;;12.65;8.18;;;-0.50;99.90;;;;;;5096091;28;20036;-85
2024/01/17 07:15:12;;;;;;;14.02;7.55;;;-0.20;99.90;;;;;;5113726;28;20423;-87
2024/01/17 07:17:38;;;;;;;15.10;7.57;;;-1.20;99.90;;;;;;5115164;28;20035;-85
2024/01/17 07:20:04;;;;;;;17.75;8.10;;;-1.20;99.90;;;;;;5114684;27;20105;-86
2024/01/17 07:22:30;;;;;;;12.80;7.85;;;-1.20;99.90;;;;;;5113556;28;20039;-86
2024/01/17 07:24:56;;;;;;;14.65;7.65;;;-0.20;99.90;;;;;;5113222;28;20047;-86
2024/01/17 07:27:21;;;;;;;14.00;7.93;;;-1.20;99.90;;;;;;5096229;28;20047;-86
2024/01/17 07:29:47;;;;;;;17.20;8.18;;;-0.50;99.90;;;;;;5113140;28;20092;-85
2024/01/17 07:32:13;;;;;;;13.50;7.85;;;-1.30;99.90;;;;;;5113055;28;20510;-85
2024/01/17 07:34:39;;;;;;;15.10;7.50;;;-1.30;99.90;;;;;;5113230;28;20373;-85
2024/01/17 07:37:04;;;;;;;17.88;8.20;;;-0.90;99.90;;;;;;5114473;28;20040;-86
2024/01/17 07:39:30;;;;;;;16.20;8.50;;;-1.60;99.90;;;;;;5096157;28;20062;-85
2024/01/17 07:41:56;;;;;;;15.23;7.97;;;-0.40;99.90;;;;;;5112964;28;20050;-85
2024/01/17 07:44:27;;;;;;;14.38;7.13;;;-1.40;99.90;;;;;;5114156;28;20177;-85
2024/01/17 07:46:53;;;;;;;14.43;8.10;;;-1.10;99.90;;;;;;5112564;28;20048;-88
2024/01/17 07:49:19;;;;;;;14.65;6.55;;;-0.60;99.90;;;;;;5113102;28;20071;-87
2024/01/17 07:51:45;;;;;;;14.40;7.88;;;-0.10;99.90;;;;;;5113368;28;20480;-87
2024/01/17 07:54:11;;;;;;;11.43;6.95;;;-1.00;99.90;;;;;;5114176;28;20042;-87
2024/01/17 07:56:36;;;;;;;11.25;7.22;;;-1.30;99.90;;;;;;5116802;28;20055;-88
2024/01/17 07:59:02;;;;;;;20.35;7.05;;;-1.30;99.90;;;;;;5119887;28;20058;-88
2024/01/17 08:01:29;;;;;;;13.30;6.80;;;-1.30;99.90;;;;;;5113075;28;20055;-89
2024/01/17 08:03:55;;;;;;;11.07;6.32;;;-0.10;99.90;;;;;;5114390;28;20118;-94
2024/01/17 08:06:21;;;;;;;12.30;6.85;;;-0.50;99.90;;;;;;5119292;28;20084;-87
2024/01/17 08:08:46;;;;;;;15.10;7.00;;;-0.20;99.90;;;;;;5130013;28;20055;-88
2024/01/17 08:11:12;;;;;;;11.45;6.90;;;-1.20;99.90;;;;;;5117517;27;20040;-90
2024/01/17 08:13:38;;;;;;;13.15;7.32;;;-1.20;99.90;;;;;;5114224;28;20135;-89
2024/01/17 08:16:04;;;;;;;12.45;7.07;;;-1.20;99.90;;;;;;5096000;28;20053;-90
2024/01/17 08:18:29;;;;;;;13.68;7.40;;;-1.20;99.90;;;;;;5114805;28;20047;-89
2024/01/17 08:20:55;;;;;;;18.08;7.93;;;-1.30;99.90;;;;;;5113043;28;20071;-89
2024/01/17 08:23:21;;;;;;;11.13;6.93;;;-1.30;99.90;;;;;;5114456;28;20043;-88
2024/01/17 08:25:47;;;;;;;12.07;7.95;;;-1.30;99.90;;;;;;5096310;28;20052;-88
2024/01/17 08:28:12;;;;;;;12.30;7.75;;;0.50;99.90;;;;;;5112913;28;20047;-89
2024/01/17 08:30:38;;;;;;;13.52;8.38;;;0.20;99.90;;;;;;5113993;28;20036;-90
2024/01/17 08:33:04;;;;;;;13.20;7.85;;;-0.30;99.90;;;;;;5113066;28;20039;-89
2024/01/17 08:35:31;;;;;;;14.48;8.07;;;-1.30;99.90;;;;;;5130391;27;20403;-89
2024/01/17 08:37:56;;;;;;;13.10;7.65;;;-1.30;99.90;;;;;;5112783;28;20122;-88
2024/01/17 08:40:22;;;;;;;12.65;7.43;;;;;;;;;;5113313;28;20542;-88
2024/01/17 08:42:48;;;;;;;15.02;8.00;;;-1.30;99.90;;;;;;5112668;28;20036;-87
2024/01/17 08:45:15;;;;;;;16.42;8.88;;;-1.10;99.90;;;;;;5114058;28;20083;-88
2024/01/17 08:47:43;;;;;;;14.35;8.00;;;-1.30;99.90;;;;;;5112244;28;20044;-88
2024/01/17 08:50:11;;;;;;;15.00;7.93;;;-0.90;99.90;;;;;;5112640;28;20887;-89
2024/01/17 08:52:37;;;;;;;16.85;8.57;;;-1.10;99.90;;;;;;5112763;28;20130;-87
2024/01/17 08:55:08;;;;;;;13.75;7.22;;;-1.00;99.90;;;;;;5111850;28;20079;-88
2024/01/17 08:57:37;;;;;;;13.90;8.18;;;-1.40;99.90;;;;;;5113300;28;20035;-87
2024/01/17 09:00:05;;;;;;;13.60;7.47;;;-1.30;99.90;;;;;;5112189;28;20040;-85
2024/01/17 09:02:31;;;;;;;16.90;7.78;;;-1.30;99.90;;;;;;5117340;28;20051;-86
2024/01/17 09:04:57;;;;;;;14.98;7.90;;;-1.30;99.90;;;;;;5116599;28;20392;-87
2024/01/17 09:07:23;;;;;;;12.43;7.38;;;-1.30;99.90;;;;;;5117253;28;20047;-88
2024/01/17 09:09:49;;;;;;;16.98;7.28;;;-1.60;99.90;;;;;;5117381;28;20057;-87
2024/01/17 09:12:17;;;;;;;13.07;7.07;;;-1.20;99.90;;;;;;5115346;28;20039;-86
2024/01/17 09:14:46;;;;;;;17.15;7.70;;;-2.00;99.90;;;;;;5117279;28;20159;-91
2024/01/17 09:17:11;;;;;;;12.65;7.00;;;-0.30;99.90;;;;;;5116595;28;20047;-88
2024/01/17 09:19:37;;;;;;;11.57;6.20;;;-1.00;99.90;;;;;;5116396;28;20406;-87
2024/01/17 09:22:03;;;;;;;10.02;6.60;;;-1.50;99.90;;;;;;5099001;28;20048;-88
2024/01/17 09:24:30;;;;;;;12.23;6.68;;;-0.90;99.90;;;;;;5116065;28;20056;-87
2024/01/17 09:26:55;;;;;;;12.68;6.32;;;0.20;99.90;;;;;;5132680;27;20510;-87
2024/01/17 09:29:21;;;;;;;12.23;6.30;;;-0.90;99.90;;;;;;5115661;28;20047;-87
2024/01/17 09:31:47;;;;;;;10.85;6.07;;;-0.80;99.90;;;;;;5115389;28;20407;-87
2024/01/17 09:34:13;;;;;;;13.80;5.82;;;-0.90;99.90;;;;;;5114513;28;20031;-84
2024/01/17 09:36:39;;;;;;;8.73;5.43;;;0.70;99.90;;;;;;5116786;28;20040;-85
2024/01/17 09:39:05;;;;;;;8.57;5.80;;;-0.80;99.90;;;;;;5115348;28;20031;-86
2024/01/17 09:41:31;;;;;;;13.75;6.95;;;0.60;99.90;;;;;;5115273;28;20070;-86
2024/01/17 09:43:56;;;;;;;15.15;7.10;;;-0.40;99.90;;;;;;5116625;28;20469;-84
2024/01/17 09:46:22;;;;;;;14.20;6.75;;;-0.80;99.90;;;;;;5097308;28;20511;-85
2024/01/17 09:48:49;;;;;;;13.38;6.60;;;-0.80;99.90;;;;;;5114876;28;20048;-86
2024/01/17 09:51:16;;;;;;;15.55;6.55;;;-0.80;99.90;;;;;;5114733;28;20101;-84
2024/01/17 09:53:46;;;;;;;13.48;6.78;;;0.40;99.90;;;;;;5098585;28;20100;-86
2024/01/17 09:56:12;;;;;;;11.27;6.88;;;0.60;99.90;;;;;;5114778;28;20052;-84
2024/01/17 09:58:40;;;;;;;11.27;6.68;;;0.40;99.90;;;;;;5113997;28;20043;-83
2024/01/17 10:01:08;;;;;;;8.63;6.10;;;-0.70;99.90;;;;;;5115564;28;20043;-84
2024/01/17 10:03:37;;;;;;;11.15;6.60;;;0.50;99.90;;;;;;5112996;28;20507;-85
2024/01/17 10:06:03;;;;;;;12.90;6.50;;;-0.50;99.90;;;;;;5106324;28;20055;-84
2024/01/17 10:08:31;;;;;;;12.30;6.70;;;0.10;99.90;;;;;;5114015;28;20050;-85
2024/01/17 10:10:57;;;;;;;10.68;6.20;;;-0.70;99.90;;;;;;5114109;28;20040;-85
2024/01/17 10:13:23;;;;;;;8.25;6.13;;;-0.30;99.90;;;;;;5113883;28;20034;-84
2024/01/17 10:15:48;;;;;;;8.35;5.68;;;-0.80;99.90;;;;;;5114053;28;20488;-84
2024/01/17 10:18:15;;;;;;;11.38;6.50;;;0.30;99.90;;;;;;5114321;28;20126;-83
2024/01/17 10:20:42;;;;;;;10.43;6.05;;;1.00;99.90;;;;;;5113895;28;20039;-85
2024/01/17 10:23:08;;;;;;;13.50;6.60;;;-0.50;99.90;;;;;;5115518;28;20062;-85
2024/01/17 10:25:44;;;;;;;11.57;6.35;;;0.30;99.90;;;;;;5114453;28;20459;-85
2024/01/17 10:28:10;;;;;;;13.23;6.15;;;-0.50;99.90;;;;;;5113411;28;20056;-84
2024/01/17 10:30:41;;;;;;;11.27;5.45;;;-0.60;99.90;;;;;;5113723;28;20089;-85
2024/01/17 10:33:07;;;;;;;9.15;5.75;;;-0.40;99.90;;;;;;5113864;28;20044;-84
2024/01/17 10:35:33;;;;;;;11.60;5.95;;;0.20;99.90;;;;;;5096972;28;20070;-85
2024/01/17 10:37:59;;;;;;;12.73;6.57;;;0.80;99.90;;;;;;5114025;28;20043;-83
2024/01/17 10:40:25;;;;;;;10.40;5.95;;;-0.20;99.90;;;;;;5097106;28;20094;-84
2024/01/17 10:43:14;;;;;;;12.23;6.55;;;-0.30;99.90;;;;;;5113730;28;20078;-84
2024/01/17 10:45:42;;;;;;;10.38;5.57;;;-0.20;99.90;;;;;;5115490;28;20040;-83
2024/01/17 10:48:08;;;;;;;12.15;5.90;;;0.50;99.90;;;;;;5115213;28;20075;-83
2024/01/17 10:50:34;;;;;;;17.88;6.22;;;-0.20;99.90;;;;;;5113909;28;20047;-83
2024/01/17 10:53:10;;;;;;;11.38;6.82;;;1.10;99.90;;;;;;5115385;28;20389;-83
2024/01/17 10:55:38;;;;;;;10.77;6.47;;;1.10;99.90;;;;;;5114391;28;20044;-84
2024/01/17 10:58:14;;;;;;;9.45;6.13;;;-0.10;99.90;;;;;;5114406;28;20062;-84
2024/01/17 11:00:47;;;;;;;;;;;0.80;99.90;;;;;;5114205;28;20043;-83
2024/01/17 11:03:19;;;;;;;9.35;5.97;;;-0.10;99.90;;;;;;5114859;28;20014;-83
2024/01/17 11:05:49;;;;;;;10.77;6.20;;;1.10;99.90;;;;;;5113404;28;20039;-84
2024/01/17 11:08:16;;;;;;;10.88;5.93;;;-0.10;99.90;;;;;;5113813;27;20043;-83
2024/01/17 11:10:44;;;;;;;9.75;5.45;;;-0.10;99.90;;;;;;5113705;28;20130;-85
2024/01/17 11:13:16;;;;;;;9.98;5.50;;;-0.20;99.90;;;;;;5113534;28;20126;-85
2024/01/17 11:15:44;;;;;;;11.30;6.30;;;0.50;99.90;;;;;;5112767;28;20051;-89
2024/01/17 11:18:11;;;;;;;11.13;5.88;;;0.50;99.90;;;;;;5113961;27;20036;-84
2024/01/17 11:20:39;;;;;;;11.45;6.72;;;0.70;99.90;;;;;;5113403;28;20130;-84
2024/01/17 11:23:13;;;;;;;11.73;6.28;;;-0.30;99.90;;;;;;5124195;27;20039;-86
2024/01/17 11:25:44;;;;;;;12.82;6.05;;;-0.50;99.90;;;;;;5135419;27;20047;-83
2024/01/17 11:28:36;;;;;;;14.00;6.97;;;0.20;99.90;;;;;;5114466;27;20043;-84
2024/01/17 11:31:10;;;;;;;13.77;6.32;;;-0.30;99.90;;;;;;5015598;28;20387;-85
2024/01/17 11:33:37;;;;;;;10.45;5.82;;;-0.20;99.90;;;;;;5015322;28;20045;-86
2024/01/17 11:36:03;;;;;;;11.93;6.30;;;1.70;99.90;;;;;;5015518;28;20065;-84
2024/01/17 11:38:31;;;;;;;15.43;6.40;;;-0.20;99.90;;;;;;5031419;28;20060;-85
2024/01/17 11:41:05;;;;;;;9.63;5.30;;;0.80;99.90;;;;;;5015199;28;20203;-83
2024/01/17 11:43:33;;;;;;;9.23;5.30;;;-0.30;99.90;;;;;;4998722;28;20045;-86
2024/01/17 11:46:01;;;;;;;12.32;6.22;;;-0.20;99.90;;;;;;5014547;28;20107;-85
2024/01/17 11:48:28;;;;;;;10.95;5.75;;;1.10;99.90;;;;;;5020250;28;20487;-84
2024/01/17 11:51:14;;;;;;;11.48;5.55;;;0.40;99.90;;;;;;5014463;28;20045;-84
2024/01/17 11:53:46;;;;;;;9.13;5.57;;;-0.20;99.90;;;;;;5036710;28;20498;-85
2024/01/17 11:56:15;;;;;;;10.40;5.90;;;-0.10;99.90;;;;;;5018297;28;20037;-84
2024/01/17 11:58:46;;;;;;;12.50;6.00;;;0.70;99.90;;;;;;5024719;28;20037;-84
2024/01/17 12:01:36;;;;;;;10.90;6.10;;;0.90;99.90;;;;;;5013559;28;20442;-84
2024/01/17 12:04:13;;;;;;;12.77;6.15;;;0.00;99.90;;;;;;5030908;28;20053;-84
2024/01/17 12:06:46;;;;;;;10.70;5.95;;;0.10;99.90;;;;;;5015805;28;20072;-84
2024/01/17 12:09:17;;;;;;;15.90;7.18;;;0.00;99.90;;;;;;5111340;28;20415;-84
2024/01/17 12:11:47;;;;;;;14.15;6.93;;;1.60;99.90;;;;;;5112277;28;20472;-84
2024/01/17 12:14:16;;;;;;;10.73;6.97;;;0.00;99.90;;;;;;5111522;28;20423;-84
2024/01/17 12:16:43;;;;;;;11.80;6.43;;;0.00;99.90;;;;;;5112046;28;20048;-84
2024/01/17 12:19:12;;;;;;;10.68;6.65;;;-0.40;99.90;;;;;;5113331;28;20470;-86
2024/01/17 12:21:38;;;;;;;15.00;7.35;;;0.10;99.90;;;;;;5111546;28;20048;-84
2024/01/17 12:24:08;;;;;;;12.32;7.30;;;0.70;99.90;;;;;;5112011;28;20035;-85
2024/01/17 12:26:34;;;;;;;8.68;5.85;;;0.10;99.90;;;;;;5111859;28;20044;-83
2024/01/17 12:29:08;;;;;;;10.15;6.63;;;0.00;99.90;;;;;;5112503;28;20564;-82
2024/01/17 12:31:35;;;;;;;11.70;7.03;;;0.80;99.90;;;;;;5113670;28;20043;-88
2024/01/17 12:34:01;;;;;;;12.18;6.35;;;0.10;99.90;;;;;;5112481;28;20039;-85
2024/01/17 12:36:27;;;;;;;12.27;7.53;;;1.10;99.90;;;;;;5111917;28;20047;-85
2024/01/17 12:38:52;;;;;;;10.43;6.10;;;0.90;99.90;;;;;;5112036;28;20412;-83
2024/01/17 12:41:18;;;;;;;9.95;6.40;;;0.40;99.90;;;;;;5113338;28;20396;-83
2024/01/17 12:43:46;;;;;;;11.73;7.25;;;0.10;99.90;;;;;;5113520;28;20407;-83